Terminal Aerodrome Forecast
Issued by NWS

Home | Current Version | Previous Version | Text Only | Print | Product List | Glossary On
Versions: 1 2 3 4 5 6 7 8 9 10 11 12 13
899
FTUS44 KCRP 221732
TAFALI
TAF
KALI 221732Z 2218/2318 16086KT P6SM SCT250
     FM222200 14014KT P6SM FEW070 SCT250
     FM230300 16008KT P6SM FEW015 SCT250
     FM231500 17015G21KT P6SM FEW035=

USA.gov is the U.S. government's official web portal to all federal, state and local government web resources and services.